sensor_id;sensor_type;location;lat;lon;timestamp;P1;durP1;ratioP1;P2;durP2;ratioP2
6113;SDS011;3087;48.392;10.836;2023-12-07T00:01:18;23.33;;;17.53;;
6113;SDS011;3087;48.392;10.836;2023-12-07T00:03:43;18.23;;;14.70;;
6113;SDS011;3087;48.392;10.836;2023-12-07T00:06:09;19.83;;;15.07;;
6113;SDS011;3087;48.392;10.836;2023-12-07T00:08:34;19.13;;;14.57;;
6113;SDS011;3087;48.392;10.836;2023-12-07T00:11:00;23.63;;;17.20;;
6113;SDS011;3087;48.392;10.836;2023-12-07T00:13:26;22.00;;;16.77;;
6113;SDS011;3087;48.392;10.836;2023-12-07T00:15:51;18.70;;;14.77;;
6113;SDS011;3087;48.392;10.836;2023-12-07T00:18:17;15.43;;;12.80;;
6113;SDS011;3087;48.392;10.836;2023-12-07T00:20:43;17.23;;;13.70;;
6113;SDS011;3087;48.392;10.836;2023-12-07T00:23:08;15.77;;;13.00;;
6113;SDS011;3087;48.392;10.836;2023-12-07T00:25:34;17.30;;;13.87;;
6113;SDS011;3087;48.392;10.836;2023-12-07T00:27:59;15.80;;;12.90;;
6113;SDS011;3087;48.392;10.836;2023-12-07T00:30:25;19.03;;;15.23;;
6113;SDS011;3087;48.392;10.836;2023-12-07T00:32:50;15.53;;;13.27;;
6113;SDS011;3087;48.392;10.836;2023-12-07T00:35:16;17.60;;;14.30;;
6113;SDS011;3087;48.392;10.836;2023-12-07T00:37:43;15.60;;;13.47;;
6113;SDS011;3087;48.392;10.836;2023-12-07T00:40:08;16.77;;;12.77;;
6113;SDS011;3087;48.392;10.836;2023-12-07T00:42:34;17.43;;;12.77;;
6113;SDS011;3087;48.392;10.836;2023-12-07T00:45:00;16.77;;;12.50;;
6113;SDS011;3087;48.392;10.836;2023-12-07T00:47:26;15.80;;;12.50;;
6113;SDS011;3087;48.392;10.836;2023-12-07T00:49:51;16.93;;;12.57;;
6113;SDS011;3087;48.392;10.836;2023-12-07T00:52:17;16.03;;;12.90;;
6113;SDS011;3087;48.392;10.836;2023-12-07T00:54:43;16.87;;;13.27;;
6113;SDS011;3087;48.392;10.836;2023-12-07T00:57:09;18.53;;;14.37;;
6113;SDS011;3087;48.392;10.836;2023-12-07T00:59:35;16.83;;;12.93;;
6113;SDS011;3087;48.392;10.836;2023-12-07T01:02:01;15.33;;;11.37;;
6113;SDS011;3087;48.392;10.836;2023-12-07T01:04:30;14.87;;;11.67;;
6113;SDS011;3087;48.392;10.836;2023-12-07T01:06:57;13.87;;;12.33;;
6113;SDS011;3087;48.392;10.836;2023-12-07T01:09:22;13.63;;;11.20;;
6113;SDS011;3087;48.392;10.836;2023-12-07T01:11:48;14.43;;;11.67;;
6113;SDS011;3087;48.392;10.836;2023-12-07T01:14:14;16.83;;;13.30;;
6113;SDS011;3087;48.392;10.836;2023-12-07T01:16:40;16.47;;;13.23;;
6113;SDS011;3087;48.392;10.836;2023-12-07T01:19:06;19.23;;;14.43;;
6113;SDS011;3087;48.392;10.836;2023-12-07T01:21:34;19.47;;;14.23;;
6113;SDS011;3087;48.392;10.836;2023-12-07T01:24:00;18.00;;;13.37;;
6113;SDS011;3087;48.392;10.836;2023-12-07T01:26:25;16.43;;;12.30;;
6113;SDS011;3087;48.392;10.836;2023-12-07T01:28:51;14.53;;;12.13;;
6113;SDS011;3087;48.392;10.836;2023-12-07T01:31:16;15.10;;;12.13;;
6113;SDS011;3087;48.392;10.836;2023-12-07T01:33:42;18.93;;;14.33;;
6113;SDS011;3087;48.392;10.836;2023-12-07T01:36:09;16.87;;;13.30;;
6113;SDS011;3087;48.392;10.836;2023-12-07T01:38:35;16.30;;;13.60;;
6113;SDS011;3087;48.392;10.836;2023-12-07T01:41:00;17.57;;;13.47;;
6113;SDS011;3087;48.392;10.836;2023-12-07T01:43:26;19.40;;;13.07;;
6113;SDS011;3087;48.392;10.836;2023-12-07T01:45:52;18.43;;;14.23;;
6113;SDS011;3087;48.392;10.836;2023-12-07T01:48:20;17.70;;;13.73;;
6113;SDS011;3087;48.392;10.836;2023-12-07T01:50:46;18.33;;;13.97;;
6113;SDS011;3087;48.392;10.836;2023-12-07T01:53:12;15.20;;;12.77;;
6113;SDS011;3087;48.392;10.836;2023-12-07T01:55:40;18.70;;;14.77;;
6113;SDS011;3087;48.392;10.836;2023-12-07T01:58:06;16.63;;;12.77;;
6113;SDS011;3087;48.392;10.836;2023-12-07T02:00:32;16.00;;;12.57;;
6113;SDS011;3087;48.392;10.836;2023-12-07T02:02:59;17.53;;;13.50;;
6113;SDS011;3087;48.392;10.836;2023-12-07T02:05:26;17.40;;;13.23;;
6113;SDS011;3087;48.392;10.836;2023-12-07T02:07:52;15.03;;;12.53;;
6113;SDS011;3087;48.392;10.836;2023-12-07T02:10:18;14.97;;;12.43;;
6113;SDS011;3087;48.392;10.836;2023-12-07T02:12:44;14.53;;;11.80;;
6113;SDS011;3087;48.392;10.836;2023-12-07T02:15:10;16.83;;;12.30;;
6113;SDS011;3087;48.392;10.836;2023-12-07T02:20:28;15.90;;;11.37;;
6113;SDS011;3087;48.392;10.836;2023-12-07T02:23:01;15.07;;;11.73;;
6113;SDS011;3087;48.392;10.836;2023-12-07T02:25:40;13.53;;;10.67;;
6113;SDS011;3087;48.392;10.836;2023-12-07T02:28:18;14.47;;;11.00;;
6113;SDS011;3087;48.392;10.836;2023-12-07T02:30:44;15.13;;;11.87;;
6113;SDS011;3087;48.392;10.836;2023-12-07T02:33:10;15.27;;;11.80;;
6113;SDS011;3087;48.392;10.836;2023-12-07T02:35:37;14.83;;;12.20;;
6113;SDS011;3087;48.392;10.836;2023-12-07T02:38:03;17.90;;;12.00;;
6113;SDS011;3087;48.392;10.836;2023-12-07T02:40:31;15.73;;;12.17;;
6113;SDS011;3087;48.392;10.836;2023-12-07T02:42:57;16.87;;;11.67;;
6113;SDS011;3087;48.392;10.836;2023-12-07T02:45:24;14.60;;;10.63;;
6113;SDS011;3087;48.392;10.836;2023-12-07T02:47:51;15.10;;;10.97;;
6113;SDS011;3087;48.392;10.836;2023-12-07T02:50:17;14.50;;;12.20;;
6113;SDS011;3087;48.392;10.836;2023-12-07T02:52:43;16.17;;;13.10;;
6113;SDS011;3087;48.392;10.836;2023-12-07T02:57:45;12.90;;;11.30;;
6113;SDS011;3087;48.392;10.836;2023-12-07T03:00:11;16.67;;;11.23;;
6113;SDS011;3087;48.392;10.836;2023-12-07T03:02:38;14.87;;;11.87;;
6113;SDS011;3087;48.392;10.836;2023-12-07T03:05:05;13.00;;;11.10;;
6113;SDS011;3087;48.392;10.836;2023-12-07T03:07:31;13.63;;;11.13;;
6113;SDS011;3087;48.392;10.836;2023-12-07T03:09:57;15.00;;;11.70;;
6113;SDS011;3087;48.392;10.836;2023-12-07T03:12:23;13.57;;;10.93;;
6113;SDS011;3087;48.392;10.836;2023-12-07T03:14:49;13.27;;;10.40;;
6113;SDS011;3087;48.392;10.836;2023-12-07T03:17:14;13.83;;;9.87;;
6113;SDS011;3087;48.392;10.836;2023-12-07T03:19:40;14.37;;;10.23;;
6113;SDS011;3087;48.392;10.836;2023-12-07T03:22:06;13.53;;;10.67;;
6113;SDS011;3087;48.392;10.836;2023-12-07T03:24:33;12.73;;;10.27;;
6113;SDS011;3087;48.392;10.836;2023-12-07T03:27:00;13.77;;;10.10;;
6113;SDS011;3087;48.392;10.836;2023-12-07T03:29:25;12.73;;;10.53;;
6113;SDS011;3087;48.392;10.836;2023-12-07T03:31:51;14.03;;;10.37;;
6113;SDS011;3087;48.392;10.836;2023-12-07T03:34:16;11.50;;;9.30;;
6113;SDS011;3087;48.392;10.836;2023-12-07T03:36:44;15.37;;;11.30;;
6113;SDS011;3087;48.392;10.836;2023-12-07T03:39:11;11.93;;;10.47;;
6113;SDS011;3087;48.392;10.836;2023-12-07T03:41:38;13.90;;;11.00;;
6113;SDS011;3087;48.392;10.836;2023-12-07T03:44:03;11.80;;;9.63;;
6113;SDS011;3087;48.392;10.836;2023-12-07T03:46:29;13.17;;;9.60;;
6113;SDS011;3087;48.392;10.836;2023-12-07T03:48:54;13.17;;;9.83;;
6113;SDS011;3087;48.392;10.836;2023-12-07T03:51:20;10.67;;;8.83;;
6113;SDS011;3087;48.392;10.836;2023-12-07T03:53:46;11.77;;;9.87;;
6113;SDS011;3087;48.392;10.836;2023-12-07T03:56:21;11.43;;;9.00;;
6113;SDS011;3087;48.392;10.836;2023-12-07T03:58:51;11.70;;;9.13;;
6113;SDS011;3087;48.392;10.836;2023-12-07T04:01:16;10.00;;;8.93;;
6113;SDS011;3087;48.392;10.836;2023-12-07T04:03:42;12.73;;;9.50;;
6113;SDS011;3087;48.392;10.836;2023-12-07T04:06:08;12.57;;;9.27;;
6113;SDS011;3087;48.392;10.836;2023-12-07T04:08:34;11.23;;;8.43;;
6113;SDS011;3087;48.392;10.836;2023-12-07T04:10:59;10.40;;;8.67;;
6113;SDS011;3087;48.392;10.836;2023-12-07T04:13:25;15.47;;;9.73;;
6113;SDS011;3087;48.392;10.836;2023-12-07T04:15:50;10.57;;;9.13;;
6113;SDS011;3087;48.392;10.836;2023-12-07T04:18:16;10.87;;;8.63;;
6113;SDS011;3087;48.392;10.836;2023-12-07T04:20:42;8.97;;;7.77;;
6113;SDS011;3087;48.392;10.836;2023-12-07T04:23:08;10.90;;;8.90;;
6113;SDS011;3087;48.392;10.836;2023-12-07T04:25:33;10.00;;;8.40;;
6113;SDS011;3087;48.392;10.836;2023-12-07T04:27:59;13.10;;;8.47;;
6113;SDS011;3087;48.392;10.836;2023-12-07T04:30:24;10.93;;;8.53;;
6113;SDS011;3087;48.392;10.836;2023-12-07T04:32:50;11.33;;;8.53;;
6113;SDS011;3087;48.392;10.836;2023-12-07T04:35:16;13.23;;;9.20;;
6113;SDS011;3087;48.392;10.836;2023-12-07T04:37:41;11.70;;;9.47;;
6113;SDS011;3087;48.392;10.836;2023-12-07T04:40:07;11.20;;;9.03;;
6113;SDS011;3087;48.392;10.836;2023-12-07T04:42:33;14.23;;;8.97;;
6113;SDS011;3087;48.392;10.836;2023-12-07T04:44:59;10.50;;;9.23;;
6113;SDS011;3087;48.392;10.836;2023-12-07T04:47:24;34.57;;;11.53;;
6113;SDS011;3087;48.392;10.836;2023-12-07T04:49:50;48.73;;;14.40;;
6113;SDS011;3087;48.392;10.836;2023-12-07T04:52:15;27.53;;;13.00;;
6113;SDS011;3087;48.392;10.836;2023-12-07T04:54:41;14.37;;;10.97;;
6113;SDS011;3087;48.392;10.836;2023-12-07T04:57:07;14.87;;;10.80;;
6113;SDS011;3087;48.392;10.836;2023-12-07T04:59:32;12.20;;;9.40;;
6113;SDS011;3087;48.392;10.836;2023-12-07T05:01:58;11.97;;;8.60;;
6113;SDS011;3087;48.392;10.836;2023-12-07T05:04:23;16.13;;;10.63;;
6113;SDS011;3087;48.392;10.836;2023-12-07T05:06:49;16.57;;;10.77;;
6113;SDS011;3087;48.392;10.836;2023-12-07T05:09:14;11.50;;;9.33;;
6113;SDS011;3087;48.392;10.836;2023-12-07T05:11:40;12.83;;;9.50;;
6113;SDS011;3087;48.392;10.836;2023-12-07T05:14:06;11.57;;;9.90;;
6113;SDS011;3087;48.392;10.836;2023-12-07T05:16:32;10.57;;;8.17;;
6113;SDS011;3087;48.392;10.836;2023-12-07T05:18:58;11.43;;;8.07;;
6113;SDS011;3087;48.392;10.836;2023-12-07T05:21:23;11.60;;;8.17;;
6113;SDS011;3087;48.392;10.836;2023-12-07T05:23:49;11.60;;;8.67;;
6113;SDS011;3087;48.392;10.836;2023-12-07T05:26:15;19.87;;;11.13;;
6113;SDS011;3087;48.392;10.836;2023-12-07T05:28:40;16.57;;;10.90;;
6113;SDS011;3087;48.392;10.836;2023-12-07T05:31:06;18.23;;;13.50;;
6113;SDS011;3087;48.392;10.836;2023-12-07T05:33:32;17.90;;;13.17;;
6113;SDS011;3087;48.392;10.836;2023-12-07T05:35:57;19.20;;;12.17;;
6113;SDS011;3087;48.392;10.836;2023-12-07T05:38:23;29.07;;;14.63;;
6113;SDS011;3087;48.392;10.836;2023-12-07T05:40:49;26.77;;;15.23;;
6113;SDS011;3087;48.392;10.836;2023-12-07T05:43:14;17.00;;;10.83;;
6113;SDS011;3087;48.392;10.836;2023-12-07T05:45:40;22.67;;;13.47;;
6113;SDS011;3087;48.392;10.836;2023-12-07T05:48:06;16.20;;;11.03;;
6113;SDS011;3087;48.392;10.836;2023-12-07T05:50:31;17.40;;;12.63;;
6113;SDS011;3087;48.392;10.836;2023-12-07T05:52:57;19.23;;;11.40;;
6113;SDS011;3087;48.392;10.836;2023-12-07T05:55:22;24.37;;;14.00;;
6113;SDS011;3087;48.392;10.836;2023-12-07T05:57:48;23.47;;;13.17;;
6113;SDS011;3087;48.392;10.836;2023-12-07T06:00:14;20.37;;;12.80;;
6113;SDS011;3087;48.392;10.836;2023-12-07T06:02:41;14.23;;;11.10;;
6113;SDS011;3087;48.392;10.836;2023-12-07T06:05:07;18.00;;;12.20;;
6113;SDS011;3087;48.392;10.836;2023-12-07T06:07:32;18.50;;;11.60;;
6113;SDS011;3087;48.392;10.836;2023-12-07T06:09:58;16.90;;;11.90;;
6113;SDS011;3087;48.392;10.836;2023-12-07T06:12:24;16.77;;;13.13;;
6113;SDS011;3087;48.392;10.836;2023-12-07T06:14:50;20.67;;;14.63;;
6113;SDS011;3087;48.392;10.836;2023-12-07T06:17:15;18.17;;;11.93;;
6113;SDS011;3087;48.392;10.836;2023-12-07T06:19:41;16.47;;;11.47;;
6113;SDS011;3087;48.392;10.836;2023-12-07T06:22:07;16.67;;;10.70;;
6113;SDS011;3087;48.392;10.836;2023-12-07T06:24:33;16.23;;;12.20;;
6113;SDS011;3087;48.392;10.836;2023-12-07T06:26:59;21.87;;;16.17;;
6113;SDS011;3087;48.392;10.836;2023-12-07T06:29:26;18.83;;;14.20;;
6113;SDS011;3087;48.392;10.836;2023-12-07T06:31:52;15.57;;;12.20;;
6113;SDS011;3087;48.392;10.836;2023-12-07T06:34:17;13.33;;;10.87;;
6113;SDS011;3087;48.392;10.836;2023-12-07T06:36:44;15.47;;;11.03;;
6113;SDS011;3087;48.392;10.836;2023-12-07T06:39:10;14.77;;;11.20;;
6113;SDS011;3087;48.392;10.836;2023-12-07T06:41:35;13.23;;;10.60;;
6113;SDS011;3087;48.392;10.836;2023-12-07T06:44:01;13.83;;;10.97;;
6113;SDS011;3087;48.392;10.836;2023-12-07T06:46:27;14.93;;;10.73;;
6113;SDS011;3087;48.392;10.836;2023-12-07T06:48:52;16.30;;;11.97;;
6113;SDS011;3087;48.392;10.836;2023-12-07T06:51:18;16.47;;;11.27;;
6113;SDS011;3087;48.392;10.836;2023-12-07T06:53:43;14.37;;;10.70;;
6113;SDS011;3087;48.392;10.836;2023-12-07T06:56:09;14.17;;;11.17;;
6113;SDS011;3087;48.392;10.836;2023-12-07T06:58:35;13.30;;;11.00;;
6113;SDS011;3087;48.392;10.836;2023-12-07T07:01:00;17.97;;;12.40;;
6113;SDS011;3087;48.392;10.836;2023-12-07T07:03:26;15.57;;;12.10;;
6113;SDS011;3087;48.392;10.836;2023-12-07T07:05:52;15.23;;;11.93;;
6113;SDS011;3087;48.392;10.836;2023-12-07T07:08:19;15.47;;;12.23;;
6113;SDS011;3087;48.392;10.836;2023-12-07T07:10:45;16.23;;;12.07;;
6113;SDS011;3087;48.392;10.836;2023-12-07T07:13:12;16.63;;;12.37;;
6113;SDS011;3087;48.392;10.836;2023-12-07T07:15:41;15.67;;;12.13;;
6113;SDS011;3087;48.392;10.836;2023-12-07T07:18:07;16.77;;;11.30;;
6113;SDS011;3087;48.392;10.836;2023-12-07T07:20:33;15.77;;;11.03;;
6113;SDS011;3087;48.392;10.836;2023-12-07T07:22:58;16.60;;;12.10;;
6113;SDS011;3087;48.392;10.836;2023-12-07T07:25:24;16.70;;;10.83;;
6113;SDS011;3087;48.392;10.836;2023-12-07T07:27:50;16.47;;;11.63;;
6113;SDS011;3087;48.392;10.836;2023-12-07T07:30:15;17.47;;;12.70;;
6113;SDS011;3087;48.392;10.836;2023-12-07T07:32:41;15.60;;;10.80;;
6113;SDS011;3087;48.392;10.836;2023-12-07T07:35:07;14.93;;;10.87;;
6113;SDS011;3087;48.392;10.836;2023-12-07T07:37:33;16.17;;;11.27;;
6113;SDS011;3087;48.392;10.836;2023-12-07T07:39:59;13.77;;;11.47;;
6113;SDS011;3087;48.392;10.836;2023-12-07T07:42:31;17.87;;;13.23;;
6113;SDS011;3087;48.392;10.836;2023-12-07T07:44:57;16.53;;;12.70;;
6113;SDS011;3087;48.392;10.836;2023-12-07T07:47:23;20.03;;;14.43;;
6113;SDS011;3087;48.392;10.836;2023-12-07T07:49:49;21.40;;;17.90;;
6113;SDS011;3087;48.392;10.836;2023-12-07T07:52:14;17.83;;;12.60;;
6113;SDS011;3087;48.392;10.836;2023-12-07T07:54:40;16.40;;;12.43;;
6113;SDS011;3087;48.392;10.836;2023-12-07T07:57:05;17.30;;;12.80;;
6113;SDS011;3087;48.392;10.836;2023-12-07T07:59:31;20.03;;;13.07;;
6113;SDS011;3087;48.392;10.836;2023-12-07T08:01:56;17.43;;;12.40;;
6113;SDS011;3087;48.392;10.836;2023-12-07T08:04:22;16.80;;;11.77;;
6113;SDS011;3087;48.392;10.836;2023-12-07T08:06:48;25.60;;;13.60;;
6113;SDS011;3087;48.392;10.836;2023-12-07T08:09:14;19.27;;;13.03;;
6113;SDS011;3087;48.392;10.836;2023-12-07T08:11:39;17.57;;;12.37;;
6113;SDS011;3087;48.392;10.836;2023-12-07T08:14:06;17.83;;;13.10;;
6113;SDS011;3087;48.392;10.836;2023-12-07T08:16:32;18.07;;;12.40;;
6113;SDS011;3087;48.392;10.836;2023-12-07T08:18:58;13.73;;;10.87;;
6113;SDS011;3087;48.392;10.836;2023-12-07T08:21:24;15.00;;;10.90;;
6113;SDS011;3087;48.392;10.836;2023-12-07T08:23:50;14.87;;;10.87;;
6113;SDS011;3087;48.392;10.836;2023-12-07T08:26:17;14.20;;;10.93;;
6113;SDS011;3087;48.392;10.836;2023-12-07T08:28:43;14.93;;;12.43;;
6113;SDS011;3087;48.392;10.836;2023-12-07T08:31:09;13.27;;;11.13;;
6113;SDS011;3087;48.392;10.836;2023-12-07T08:33:35;15.40;;;11.07;;
6113;SDS011;3087;48.392;10.836;2023-12-07T08:36:04;14.13;;;11.63;;
6113;SDS011;3087;48.392;10.836;2023-12-07T08:38:31;15.20;;;11.17;;
6113;SDS011;3087;48.392;10.836;2023-12-07T08:40:57;13.57;;;10.73;;
6113;SDS011;3087;48.392;10.836;2023-12-07T08:43:23;16.57;;;12.00;;
6113;SDS011;3087;48.392;10.836;2023-12-07T08:45:49;15.90;;;11.10;;
6113;SDS011;3087;48.392;10.836;2023-12-07T08:48:15;16.43;;;12.97;;
6113;SDS011;3087;48.392;10.836;2023-12-07T08:50:41;14.30;;;11.33;;
6113;SDS011;3087;48.392;10.836;2023-12-07T08:53:07;17.07;;;12.97;;
6113;SDS011;3087;48.392;10.836;2023-12-07T08:55:32;15.33;;;10.70;;
6113;SDS011;3087;48.392;10.836;2023-12-07T08:57:58;16.33;;;12.87;;
6113;SDS011;3087;48.392;10.836;2023-12-07T09:00:25;15.20;;;10.87;;
6113;SDS011;3087;48.392;10.836;2023-12-07T09:02:51;15.73;;;11.30;;
6113;SDS011;3087;48.392;10.836;2023-12-07T09:05:17;15.23;;;11.87;;
6113;SDS011;3087;48.392;10.836;2023-12-07T09:07:43;16.43;;;11.63;;
6113;SDS011;3087;48.392;10.836;2023-12-07T09:10:09;15.37;;;11.47;;
6113;SDS011;3087;48.392;10.836;2023-12-07T09:12:36;15.30;;;12.27;;
6113;SDS011;3087;48.392;10.836;2023-12-07T09:15:02;16.43;;;12.40;;
6113;SDS011;3087;48.392;10.836;2023-12-07T09:17:28;16.40;;;11.93;;
6113;SDS011;3087;48.392;10.836;2023-12-07T09:19:54;13.70;;;11.83;;
6113;SDS011;3087;48.392;10.836;2023-12-07T09:22:20;15.63;;;11.30;;
6113;SDS011;3087;48.392;10.836;2023-12-07T09:24:46;15.23;;;10.97;;
6113;SDS011;3087;48.392;10.836;2023-12-07T09:27:15;13.23;;;11.27;;
6113;SDS011;3087;48.392;10.836;2023-12-07T09:29:40;17.30;;;10.53;;
6113;SDS011;3087;48.392;10.836;2023-12-07T09:32:06;12.60;;;10.53;;
6113;SDS011;3087;48.392;10.836;2023-12-07T09:34:32;14.53;;;11.63;;
6113;SDS011;3087;48.392;10.836;2023-12-07T09:37:10;12.60;;;10.67;;
6113;SDS011;3087;48.392;10.836;2023-12-07T09:39:36;14.13;;;10.93;;
6113;SDS011;3087;48.392;10.836;2023-12-07T09:42:02;11.77;;;10.57;;
6113;SDS011;3087;48.392;10.836;2023-12-07T09:44:28;11.90;;;10.47;;
6113;SDS011;3087;48.392;10.836;2023-12-07T09:46:54;12.63;;;11.33;;
6113;SDS011;3087;48.392;10.836;2023-12-07T09:49:20;13.20;;;11.73;;
6113;SDS011;3087;48.392;10.836;2023-12-07T09:51:46;13.00;;;11.37;;
6113;SDS011;3087;48.392;10.836;2023-12-07T09:54:13;13.57;;;11.57;;
6113;SDS011;3087;48.392;10.836;2023-12-07T09:56:39;12.70;;;11.30;;
6113;SDS011;3087;48.392;10.836;2023-12-07T09:59:05;14.70;;;12.50;;
6113;SDS011;3087;48.392;10.836;2023-12-07T10:01:32;13.43;;;11.50;;
6113;SDS011;3087;48.392;10.836;2023-12-07T10:06:45;15.67;;;12.97;;
6113;SDS011;3087;48.392;10.836;2023-12-07T10:09:12;15.07;;;12.20;;
6113;SDS011;3087;48.392;10.836;2023-12-07T10:11:39;12.98;;;11.60;;
6113;SDS011;3087;48.392;10.836;2023-12-07T10:14:08;13.27;;;11.83;;
6113;SDS011;3087;48.392;10.836;2023-12-07T10:16:34;12.83;;;11.37;;
6113;SDS011;3087;48.392;10.836;2023-12-07T10:19:16;13.30;;;10.15;;
6113;SDS011;3087;48.392;10.836;2023-12-07T10:21:46;12.65;;;10.48;;
6113;SDS011;3087;48.392;10.836;2023-12-07T10:24:15;11.87;;;10.47;;
6113;SDS011;3087;48.392;10.836;2023-12-07T10:26:41;13.15;;;10.93;;
6113;SDS011;3087;48.392;10.836;2023-12-07T10:29:09;17.15;;;10.35;;
6113;SDS011;3087;48.392;10.836;2023-12-07T10:31:41;14.60;;;11.07;;
6113;SDS011;3087;48.392;10.836;2023-12-07T10:34:07;14.07;;;10.77;;
6113;SDS011;3087;48.392;10.836;2023-12-07T10:36:33;12.82;;;11.13;;
6113;SDS011;3087;48.392;10.836;2023-12-07T10:38:59;15.25;;;11.65;;
6113;SDS011;3087;48.392;10.836;2023-12-07T10:41:25;13.23;;;11.82;;
6113;SDS011;3087;48.392;10.836;2023-12-07T10:43:51;13.13;;;11.52;;
6113;SDS011;3087;48.392;10.836;2023-12-07T10:46:19;14.65;;;12.07;;
6113;SDS011;3087;48.392;10.836;2023-12-07T10:48:55;12.88;;;11.57;;
6113;SDS011;3087;48.392;10.836;2023-12-07T10:51:34;12.75;;;11.40;;
6113;SDS011;3087;48.392;10.836;2023-12-07T10:54:05;13.30;;;11.13;;
6113;SDS011;3087;48.392;10.836;2023-12-07T10:56:43;12.85;;;11.40;;
6113;SDS011;3087;48.392;10.836;2023-12-07T10:59:10;15.50;;;12.02;;
6113;SDS011;3087;48.392;10.836;2023-12-07T11:01:40;13.07;;;11.00;;
6113;SDS011;3087;48.392;10.836;2023-12-07T11:04:12;12.40;;;10.13;;
6113;SDS011;3087;48.392;10.836;2023-12-07T11:06:43;12.55;;;9.27;;
6113;SDS011;3087;48.392;10.836;2023-12-07T11:09:23;14.07;;;10.13;;
6113;SDS011;3087;48.392;10.836;2023-12-07T11:14:53;10.20;;;8.63;;
6113;SDS011;3087;48.392;10.836;2023-12-07T11:17:20;10.35;;;8.45;;
6113;SDS011;3087;48.392;10.836;2023-12-07T11:19:47;7.40;;;6.63;;
6113;SDS011;3087;48.392;10.836;2023-12-07T11:22:14;6.75;;;5.90;;
6113;SDS011;3087;48.392;10.836;2023-12-07T11:24:53;6.75;;;5.63;;
6113;SDS011;3087;48.392;10.836;2023-12-07T11:27:23;6.50;;;5.90;;
6113;SDS011;3087;48.392;10.836;2023-12-07T11:29:49;9.15;;;6.13;;
6113;SDS011;3087;48.392;10.836;2023-12-07T11:32:17;6.45;;;5.70;;
6113;SDS011;3087;48.392;10.836;2023-12-07T11:34:44;6.88;;;5.90;;
6113;SDS011;3087;48.392;10.836;2023-12-07T11:37:17;7.40;;;6.60;;
6113;SDS011;3087;48.392;10.836;2023-12-07T11:39:45;6.88;;;6.05;;
6113;SDS011;3087;48.392;10.836;2023-12-07T11:42:12;8.18;;;7.10;;
6113;SDS011;3087;48.392;10.836;2023-12-07T11:44:40;8.07;;;6.72;;
6113;SDS011;3087;48.392;10.836;2023-12-07T11:47:07;7.72;;;6.22;;
6113;SDS011;3087;48.392;10.836;2023-12-07T11:49:34;8.07;;;6.13;;
6113;SDS011;3087;48.392;10.836;2023-12-07T11:52:00;7.50;;;5.60;;
6113;SDS011;3087;48.392;10.836;2023-12-07T11:54:36;6.60;;;5.30;;
6113;SDS011;3087;48.392;10.836;2023-12-07T11:57:02;6.05;;;5.45;;
6113;SDS011;3087;48.392;10.836;2023-12-07T11:59:28;6.57;;;5.68;;
6113;SDS011;3087;48.392;10.836;2023-12-07T12:01:54;7.30;;;6.00;;
6113;SDS011;3087;48.392;10.836;2023-12-07T12:04:21;11.23;;;7.75;;
6113;SDS011;3087;48.392;10.836;2023-12-07T12:06:47;9.27;;;7.65;;
6113;SDS011;3087;48.392;10.836;2023-12-07T12:09:13;10.52;;;7.72;;
6113;SDS011;3087;48.392;10.836;2023-12-07T12:11:48;12.15;;;9.93;;
6113;SDS011;3087;48.392;10.836;2023-12-07T12:14:15;9.73;;;8.23;;
6113;SDS011;3087;48.392;10.836;2023-12-07T12:16:45;8.27;;;6.43;;
6113;SDS011;3087;48.392;10.836;2023-12-07T12:19:11;6.55;;;5.78;;
6113;SDS011;3087;48.392;10.836;2023-12-07T12:21:39;7.25;;;6.50;;
6113;SDS011;3087;48.392;10.836;2023-12-07T12:24:08;7.95;;;6.57;;
6113;SDS011;3087;48.392;10.836;2023-12-07T12:26:36;7.93;;;6.00;;
6113;SDS011;3087;48.392;10.836;2023-12-07T12:29:04;7.93;;;7.07;;
6113;SDS011;3087;48.392;10.836;2023-12-07T12:31:37;7.68;;;6.60;;
6113;SDS011;3087;48.392;10.836;2023-12-07T12:34:07;10.05;;;7.30;;
6113;SDS011;3087;48.392;10.836;2023-12-07T12:36:37;9.25;;;7.32;;
6113;SDS011;3087;48.392;10.836;2023-12-07T12:39:03;7.32;;;6.57;;
6113;SDS011;3087;48.392;10.836;2023-12-07T12:41:33;8.30;;;6.67;;
6113;SDS011;3087;48.392;10.836;2023-12-07T12:43:59;8.98;;;6.93;;
6113;SDS011;3087;48.392;10.836;2023-12-07T12:46:24;10.33;;;7.10;;
6113;SDS011;3087;48.392;10.836;2023-12-07T12:48:57;7.10;;;5.87;;
6113;SDS011;3087;48.392;10.836;2023-12-07T12:51:24;7.40;;;6.23;;
6113;SDS011;3087;48.392;10.836;2023-12-07T12:53:52;6.77;;;6.03;;
6113;SDS011;3087;48.392;10.836;2023-12-07T12:56:18;8.43;;;6.47;;
6113;SDS011;3087;48.392;10.836;2023-12-07T12:58:45;7.37;;;6.37;;
6113;SDS011;3087;48.392;10.836;2023-12-07T13:01:11;7.60;;;6.33;;
6113;SDS011;3087;48.392;10.836;2023-12-07T13:03:37;7.17;;;5.87;;
6113;SDS011;3087;48.392;10.836;2023-12-07T13:06:02;16.40;;;9.83;;
6113;SDS011;3087;48.392;10.836;2023-12-07T13:08:28;8.60;;;7.80;;
6113;SDS011;3087;48.392;10.836;2023-12-07T13:10:54;7.47;;;4.53;;
6113;SDS011;3087;48.392;10.836;2023-12-07T13:13:20;5.43;;;3.83;;
6113;SDS011;3087;48.392;10.836;2023-12-07T13:15:46;5.87;;;4.03;;
6113;SDS011;3087;48.392;10.836;2023-12-07T13:18:11;4.23;;;3.33;;
6113;SDS011;3087;48.392;10.836;2023-12-07T13:20:38;3.97;;;3.67;;
6113;SDS011;3087;48.392;10.836;2023-12-07T13:23:04;3.50;;;3.03;;
6113;SDS011;3087;48.392;10.836;2023-12-07T13:25:29;3.43;;;2.90;;
6113;SDS011;3087;48.392;10.836;2023-12-07T13:27:55;4.00;;;3.27;;
6113;SDS011;3087;48.392;10.836;2023-12-07T13:30:21;6.07;;;5.57;;
6113;SDS011;3087;48.392;10.836;2023-12-07T13:32:46;4.13;;;3.57;;
6113;SDS011;3087;48.392;10.836;2023-12-07T13:35:13;5.00;;;4.17;;
6113;SDS011;3087;48.392;10.836;2023-12-07T13:37:38;5.07;;;3.50;;
6113;SDS011;3087;48.392;10.836;2023-12-07T13:40:04;4.77;;;3.40;;
6113;SDS011;3087;48.392;10.836;2023-12-07T13:42:35;4.90;;;4.20;;
6113;SDS011;3087;48.392;10.836;2023-12-07T13:45:02;4.20;;;3.80;;
6113;SDS011;3087;48.392;10.836;2023-12-07T13:47:28;4.50;;;3.80;;
6113;SDS011;3087;48.392;10.836;2023-12-07T13:49:59;4.30;;;3.60;;
6113;SDS011;3087;48.392;10.836;2023-12-07T13:52:26;4.83;;;3.73;;
6113;SDS011;3087;48.392;10.836;2023-12-07T13:54:53;4.97;;;4.47;;
6113;SDS011;3087;48.392;10.836;2023-12-07T13:57:21;4.73;;;3.73;;
6113;SDS011;3087;48.392;10.836;2023-12-07T13:59:51;4.77;;;3.73;;
6113;SDS011;3087;48.392;10.836;2023-12-07T14:02:17;5.27;;;4.10;;
6113;SDS011;3087;48.392;10.836;2023-12-07T14:04:43;6.37;;;4.40;;
6113;SDS011;3087;48.392;10.836;2023-12-07T14:07:12;4.30;;;3.90;;
6113;SDS011;3087;48.392;10.836;2023-12-07T14:09:40;4.63;;;4.10;;
6113;SDS011;3087;48.392;10.836;2023-12-07T14:12:07;4.07;;;3.60;;
6113;SDS011;3087;48.392;10.836;2023-12-07T14:14:35;4.83;;;4.20;;
6113;SDS011;3087;48.392;10.836;2023-12-07T14:17:09;4.83;;;4.23;;
6113;SDS011;3087;48.392;10.836;2023-12-07T14:19:36;8.10;;;4.27;;
6113;SDS011;3087;48.392;10.836;2023-12-07T14:22:03;4.80;;;4.20;;
6113;SDS011;3087;48.392;10.836;2023-12-07T14:24:29;5.17;;;4.67;;
6113;SDS011;3087;48.392;10.836;2023-12-07T14:26:58;9.20;;;5.90;;
6113;SDS011;3087;48.392;10.836;2023-12-07T14:29:25;18.80;;;9.10;;
6113;SDS011;3087;48.392;10.836;2023-12-07T14:31:51;13.60;;;6.87;;
6113;SDS011;3087;48.392;10.836;2023-12-07T14:34:18;7.43;;;5.73;;
6113;SDS011;3087;48.392;10.836;2023-12-07T14:36:44;5.57;;;5.07;;
6113;SDS011;3087;48.392;10.836;2023-12-07T14:39:13;6.20;;;4.73;;
6113;SDS011;3087;48.392;10.836;2023-12-07T14:41:44;5.67;;;5.07;;
6113;SDS011;3087;48.392;10.836;2023-12-07T14:44:14;6.93;;;5.20;;
6113;SDS011;3087;48.392;10.836;2023-12-07T14:46:43;6.07;;;4.73;;
6113;SDS011;3087;48.392;10.836;2023-12-07T14:49:15;6.17;;;5.47;;
6113;SDS011;3087;48.392;10.836;2023-12-07T14:51:42;8.20;;;6.10;;